HKMO/MBA METAR and TAF weather

Enter ICAO airport designator
Station Type Date Time Source
HKMO METAR 2022/07/03 14:30 UTC NOAA

HKMO 031430Z 16012KT 9999 FEW025 26/21 Q1017 NOSIG


Station Type Date Time Source
HKMO Decoded METAR 2022/07/03 14:30 UTC NOAA

Mombasa, Kenya (HKMO) 04-02S 039-37E 55M
Jul 03, 2022 - 10:30 AM EDT / 2022.07.03 1430 UTC
Wind: from the SSE (160 degrees) at 14 MPH (12 KT):0
Visibility: greater than 7 mile(s):0
Sky conditions: mostly clear
Temperature: 78 F (26 C)
Dew Point: 69 F (21 C)
Relative Humidity: 73%
Pressure (altimeter): 30.03 in. Hg (1017 hPa)
ob: HKMO 031430Z 16012KT 9999 FEW025 26/21 Q1017 NOSIG
cycle: 14

Station Type Date Time Source
HKMO TAF 2022/07/03 12:18 UTC NOAA

TAF TAF HKMO 031100Z 0312/0418 18015KT 9999 FEW023 SCT080
BECMG 0400/0403 21005KT FEW020

Example: see airport list